createdAt,value
2023-05-19T00:02:56.304Z,3.90
2023-05-19T00:05:59.193Z,3.40
2023-05-19T00:12:08.110Z,3.97
2023-05-19T00:15:10.747Z,3.08
2023-05-19T00:18:14.230Z,3.58
2023-05-19T00:21:16.957Z,3.70
2023-05-19T00:24:18.921Z,3.45
2023-05-19T00:27:20.992Z,3.33
2023-05-19T00:30:23.142Z,3.40
2023-05-19T00:33:25.060Z,3.13
2023-05-19T00:36:27.111Z,3.00
2023-05-19T00:39:29.053Z,3.10
2023-05-19T00:42:31.062Z,3.07
2023-05-19T00:45:33.171Z,3.45
2023-05-19T00:48:35.048Z,3.40
2023-05-19T00:51:46.296Z,3.60
2023-05-19T00:54:49.368Z,3.90
2023-05-19T00:57:51.502Z,3.75
2023-05-19T01:00:53.469Z,4.05
2023-05-19T01:03:59.211Z,4.40
2023-05-19T01:07:01.348Z,3.55
2023-05-19T01:10:03.631Z,3.47
2023-05-19T01:13:06.672Z,3.30
2023-05-19T01:16:42.726Z,3.28
2023-05-19T01:20:16.946Z,3.30
2023-05-19T01:23:57.161Z,3.17
2023-05-19T01:27:24.096Z,2.97
2023-05-19T01:30:33.700Z,3.03
2023-05-19T01:33:36.520Z,3.03
2023-05-19T01:36:41.041Z,3.38
2023-05-19T01:39:44.972Z,3.88
2023-05-19T01:42:47.338Z,3.47
2023-05-19T01:45:49.472Z,3.47
2023-05-19T01:48:52.761Z,3.35
2023-05-19T01:51:54.983Z,3.50
2023-05-19T01:54:57.342Z,3.20
2023-05-19T01:57:59.195Z,3.17
2023-05-19T02:01:07.026Z,3.67
2023-05-19T02:04:15.087Z,3.10
2023-05-19T02:07:58.563Z,3.03
2023-05-19T02:11:09.638Z,3.20
2023-05-19T02:14:29.859Z,3.35
2023-05-19T02:17:36.748Z,3.20
2023-05-19T02:20:40.217Z,3.60
2023-05-19T02:23:42.505Z,3.13
2023-05-19T02:26:44.487Z,3.13
2023-05-19T02:29:46.414Z,3.27
2023-05-19T02:32:48.436Z,2.75
2023-05-19T02:38:52.977Z,2.97
2023-05-19T02:41:54.892Z,3.43
2023-05-19T02:44:56.954Z,2.73
2023-05-19T02:47:59.659Z,3.05
2023-05-19T02:54:03.792Z,2.90
2023-05-19T02:57:06.855Z,2.58
2023-05-19T03:00:09.557Z,2.50
2023-05-19T03:06:14.343Z,2.33
2023-05-19T03:09:16.363Z,3.00
2023-05-19T03:12:18.316Z,2.70
2023-05-19T03:15:22.989Z,3.30
2023-05-19T03:18:26.506Z,3.00
2023-05-19T03:21:28.680Z,3.03
2023-05-19T03:24:30.935Z,2.80
2023-05-19T03:27:32.941Z,2.92
2023-05-19T03:30:34.928Z,3.07
2023-05-19T03:33:43.095Z,3.28
2023-05-19T03:36:45.299Z,3.08
2023-05-19T03:39:51.213Z,2.80
2023-05-19T03:42:54.626Z,2.92
2023-05-19T03:45:57.075Z,2.78
2023-05-19T03:49:17.678Z,3.35
2023-05-19T03:52:38.745Z,2.85
2023-05-19T03:55:57.118Z,2.95
2023-05-19T03:58:59.561Z,2.67
2023-05-19T04:02:01.511Z,2.60
2023-05-19T04:05:05.231Z,2.83
2023-05-19T04:08:07.198Z,2.67
2023-05-19T04:11:09.248Z,2.60
2023-05-19T04:14:11.186Z,2.67
2023-05-19T04:17:13.142Z,3.00
2023-05-19T04:20:15.153Z,2.20
2023-05-19T04:23:17.131Z,2.38
2023-05-19T04:29:24.342Z,2.63
2023-05-19T04:35:30.240Z,2.03
2023-05-19T04:38:35.106Z,2.10
2023-05-19T04:41:40.344Z,2.60
2023-05-19T04:44:42.647Z,2.15
2023-05-19T04:47:47.023Z,4.20
2023-05-19T04:50:49.628Z,2.70
2023-05-19T04:53:52.728Z,2.25
2023-05-19T04:56:55.351Z,1.90
2023-05-19T05:00:05.187Z,2.03
2023-05-19T05:03:14.742Z,1.58
2023-05-19T05:06:16.792Z,1.80
2023-05-19T05:09:20.007Z,2.00
2023-05-19T05:12:22.615Z,1.75
2023-05-19T05:15:25.411Z,1.73
2023-05-19T05:21:29.886Z,1.55
2023-05-19T05:24:33.004Z,1.65
2023-05-19T05:27:38.332Z,1.70
2023-05-19T05:30:42.184Z,1.50
2023-05-19T05:33:45.016Z,1.38
2023-05-19T05:36:48.155Z,1.30
2023-05-19T05:39:50.393Z,1.50
2023-05-19T05:42:52.418Z,1.33
2023-05-19T05:45:57.510Z,1.60
2023-05-19T05:49:00.026Z,1.30
2023-05-19T05:52:06.180Z,1.30
2023-05-19T05:55:17.528Z,1.35
2023-05-19T05:58:21.357Z,1.25
2023-05-19T06:01:24.936Z,1.30
2023-05-19T06:04:28.575Z,1.40
2023-05-19T06:07:30.796Z,1.40
2023-05-19T06:10:33.693Z,1.20
2023-05-19T06:13:36.962Z,1.40
2023-05-19T06:16:42.049Z,1.17
2023-05-19T06:19:44.563Z,1.30
2023-05-19T06:22:46.550Z,1.60
2023-05-19T06:25:49.828Z,1.35
2023-05-19T06:31:54.999Z,1.63
2023-05-19T06:34:57.127Z,1.60
2023-05-19T06:38:00.306Z,1.60
2023-05-19T06:44:07.022Z,1.20
2023-05-19T06:47:10.214Z,1.20
2023-05-19T06:50:13.246Z,1.27
2023-05-19T06:53:19.721Z,1.17
2023-05-19T06:56:23.000Z,1.30
2023-05-19T06:59:26.017Z,1.60
2023-05-19T07:02:28.206Z,1.50
2023-05-19T07:05:30.618Z,1.45
2023-05-19T07:08:37.190Z,1.27
2023-05-19T07:11:40.963Z,1.40
2023-05-19T07:14:45.051Z,1.38
2023-05-19T07:17:48.066Z,1.40
2023-05-19T07:20:52.316Z,1.08
2023-05-19T07:23:55.829Z,1.15
2023-05-19T07:26:58.377Z,1.40
2023-05-19T07:30:00.271Z,1.25
2023-05-19T07:36:05.984Z,1.33
2023-05-19T07:39:08.027Z,1.40
2023-05-19T07:42:10.249Z,1.50
2023-05-19T07:45:12.137Z,1.27
2023-05-19T07:51:16.306Z,1.50
2023-05-19T07:54:18.527Z,1.30
2023-05-19T07:57:20.440Z,1.33
2023-05-19T08:00:22.737Z,1.40
2023-05-19T08:03:25.847Z,1.13
2023-05-19T08:06:30.106Z,1.30
2023-05-19T08:09:32.094Z,1.60
2023-05-19T08:12:34.029Z,1.70
2023-05-19T08:15:35.964Z,1.58
2023-05-19T08:18:37.916Z,1.90
2023-05-19T08:21:39.922Z,1.77
2023-05-19T08:24:43.363Z,1.80
2023-05-19T08:27:45.764Z,1.30
2023-05-19T08:30:47.751Z,1.50
2023-05-19T08:33:49.656Z,1.50
2023-05-19T08:36:51.626Z,1.48
2023-05-19T08:39:53.496Z,1.67
2023-05-19T08:42:55.477Z,1.80
2023-05-19T08:46:00.802Z,1.83
2023-05-19T08:49:10.378Z,1.90
2023-05-19T08:52:33.465Z,1.70
2023-05-19T08:55:53.397Z,1.80
2023-05-19T08:59:00.402Z,2.22
2023-05-19T09:02:04.182Z,2.45
2023-05-19T09:05:07.421Z,2.38
2023-05-19T09:08:09.521Z,2.10
2023-05-19T09:11:11.896Z,1.95
2023-05-19T09:14:13.862Z,1.75
2023-05-19T09:17:15.977Z,1.92
2023-05-19T09:20:17.962Z,2.35
2023-05-19T09:23:21.057Z,2.40
2023-05-19T09:26:23.575Z,1.95
2023-05-19T09:29:28.761Z,1.60
2023-05-19T09:32:31.601Z,1.70
2023-05-19T09:35:35.249Z,1.90
2023-05-19T09:38:38.935Z,1.75
2023-05-19T09:41:41.232Z,1.70
2023-05-19T09:44:43.814Z,1.40
2023-05-19T09:47:45.750Z,1.70
2023-05-19T09:50:49.398Z,1.60
2023-05-19T09:53:53.103Z,1.70
2023-05-19T09:57:03.685Z,1.60
2023-05-19T10:00:12.079Z,1.90
2023-05-19T10:03:16.573Z,2.00
2023-05-19T10:06:19.868Z,1.63
2023-05-19T10:09:25.988Z,1.60
2023-05-19T10:12:28.304Z,1.63
2023-05-19T10:15:31.004Z,1.60
2023-05-19T10:18:33.890Z,1.77
2023-05-19T10:21:36.631Z,1.67
2023-05-19T10:24:38.505Z,2.38
2023-05-19T10:30:47.902Z,1.52
2023-05-19T10:34:07.996Z,1.65
2023-05-19T10:37:41.873Z,1.70
2023-05-19T10:40:51.884Z,1.60
2023-05-19T10:44:09.690Z,1.60
2023-05-19T10:47:12.351Z,1.88
2023-05-19T10:50:15.762Z,1.80
2023-05-19T10:53:19.519Z,1.80
2023-05-19T10:56:36.438Z,1.80
2023-05-19T10:59:39.432Z,1.55
2023-05-19T11:02:44.420Z,1.58
2023-05-19T11:05:46.716Z,1.75
2023-05-19T11:08:53.838Z,1.80
2023-05-19T11:11:55.777Z,1.75
2023-05-19T11:14:59.499Z,2.50
2023-05-19T11:18:02.409Z,2.80
2023-05-19T11:21:04.517Z,2.53
2023-05-19T11:24:09.073Z,3.53
2023-05-19T11:27:20.892Z,3.00
2023-05-19T11:30:23.274Z,2.70
2023-05-19T11:33:29.351Z,2.67
2023-05-19T11:36:31.925Z,3.28
2023-05-19T11:39:34.072Z,2.80
2023-05-19T11:45:39.558Z,3.03
2023-05-19T11:51:45.443Z,3.05
2023-05-19T11:54:48.554Z,2.80
2023-05-19T11:58:04.405Z,2.60
2023-05-19T12:01:07.030Z,2.55
2023-05-19T12:04:12.243Z,3.03
2023-05-19T12:07:23.340Z,2.88
2023-05-19T12:10:27.367Z,3.65
2023-05-19T12:13:30.530Z,3.42
2023-05-19T12:16:35.745Z,3.35
2023-05-19T12:19:37.953Z,3.20
2023-05-19T12:22:40.104Z,2.95
2023-05-19T12:25:42.074Z,3.30
2023-05-19T12:31:47.638Z,2.80
2023-05-19T12:34:50.216Z,2.90
2023-05-19T12:37:52.224Z,3.15
2023-05-19T12:44:17.763Z,2.80
2023-05-19T12:47:20.506Z,3.10
2023-05-19T12:50:22.403Z,2.85
2023-05-19T12:53:26.607Z,2.47
2023-05-19T12:56:29.011Z,2.42
2023-05-19T12:59:38.877Z,2.63
2023-05-19T13:02:58.076Z,2.03
2023-05-19T13:06:00.148Z,2.20
2023-05-19T13:12:04.866Z,2.60
2023-05-19T13:15:07.371Z,2.65
2023-05-19T13:18:13.704Z,2.53
2023-05-19T13:21:15.966Z,2.50
2023-05-19T13:24:17.922Z,3.00
2023-05-19T13:30:22.134Z,3.65
2023-05-19T13:33:24.069Z,3.33
2023-05-19T13:39:28.616Z,2.65
2023-05-19T13:45:33.858Z,2.38
2023-05-19T13:48:35.861Z,2.22
2023-05-19T13:51:37.951Z,2.15
2023-05-19T13:57:43.434Z,2.47
2023-05-19T14:00:46.086Z,2.80
2023-05-19T14:09:52.688Z,3.03
2023-05-19T14:13:29.046Z,2.53
2023-05-19T14:16:17.448Z,3.08
2023-05-19T14:19:19.522Z,3.25
2023-05-19T14:22:21.435Z,2.78
2023-05-19T14:28:25.246Z,2.72
2023-05-19T14:34:29.714Z,3.35
2023-05-19T14:37:32.382Z,2.60
2023-05-19T14:40:36.969Z,2.70
2023-05-19T14:43:38.883Z,2.33
2023-05-19T14:49:42.536Z,2.38
2023-05-19T14:52:44.526Z,2.00
2023-05-19T14:58:53.742Z,1.75
2023-05-19T15:04:57.338Z,1.70
2023-05-19T15:07:59.197Z,1.90
2023-05-19T15:14:02.961Z,1.83
2023-05-19T15:20:07.405Z,1.77
2023-05-19T15:23:09.322Z,1.90
2023-05-19T15:29:13.156Z,2.00
2023-05-19T15:35:16.868Z,2.00
2023-05-19T15:44:23.597Z,2.05
2023-05-19T15:47:26.035Z,1.88
2023-05-19T15:50:27.951Z,2.00
2023-05-19T15:56:31.606Z,1.77
2023-05-19T15:59:33.524Z,1.60
2023-05-19T16:05:37.911Z,1.70
2023-05-19T16:08:39.843Z,1.67
2023-05-19T16:14:43.405Z,1.57
2023-05-19T16:17:45.330Z,1.60
2023-05-19T16:20:47.170Z,1.77
2023-05-19T16:23:49.098Z,1.83
2023-05-19T16:26:53.583Z,1.77
2023-05-19T16:29:55.574Z,2.20
2023-05-19T16:32:57.525Z,1.92
2023-05-19T16:42:06.716Z,2.38
2023-05-19T16:45:09.102Z,2.20
2023-05-19T16:48:11.355Z,2.00
2023-05-19T16:51:13.253Z,2.28
2023-05-19T16:54:15.067Z,2.90
2023-05-19T16:57:16.961Z,2.63
2023-05-19T17:00:19.196Z,2.75
2023-05-19T17:06:22.900Z,3.88
2023-05-19T17:09:27.431Z,4.25
2023-05-19T17:12:29.327Z,4.53
2023-05-19T17:15:31.697Z,5.68
2023-05-19T17:18:33.560Z,5.20
2023-05-19T17:21:35.383Z,6.85
2023-05-19T17:24:37.233Z,5.93
2023-05-19T17:27:39.289Z,6.50
2023-05-19T17:30:41.459Z,6.13
2023-05-19T17:36:45.305Z,6.23
2023-05-19T17:39:47.211Z,6.03
2023-05-19T17:42:49.064Z,6.20
2023-05-19T17:45:51.003Z,6.53
2023-05-19T17:48:52.885Z,6.55
2023-05-19T17:51:55.084Z,6.43
2023-05-19T17:54:57.300Z,6.85
2023-05-19T18:01:01.384Z,7.17
2023-05-19T18:04:03.892Z,9.80
2023-05-19T18:07:09.024Z,9.57
2023-05-19T18:10:11.840Z,9.45
2023-05-19T18:13:14.380Z,10.93
2023-05-19T18:16:16.580Z,22.65
2023-05-19T18:19:18.513Z,24.08
2023-05-19T18:22:20.690Z,18.50
2023-05-19T18:25:25.353Z,15.82
2023-05-19T18:28:27.176Z,17.00
2023-05-19T18:31:29.203Z,18.60
2023-05-19T18:34:31.172Z,16.92
2023-05-19T18:37:34.586Z,15.60
2023-05-19T18:40:36.586Z,14.45
2023-05-19T18:43:39.141Z,12.68
2023-05-19T18:46:41.245Z,13.48
2023-05-19T18:49:43.159Z,12.13
2023-05-19T18:52:44.993Z,10.73
2023-05-19T18:55:46.848Z,9.35
2023-05-19T18:58:48.716Z,9.45
2023-05-19T19:01:50.671Z,7.65
2023-05-19T19:04:52.577Z,7.57
2023-05-19T19:07:54.545Z,7.78
2023-05-19T19:11:00.228Z,6.30
2023-05-19T19:14:02.379Z,6.20
2023-05-19T19:17:04.389Z,5.90
2023-05-19T19:20:09.648Z,5.75
2023-05-19T19:23:11.794Z,5.03
2023-05-19T19:26:13.582Z,6.05
2023-05-19T19:29:16.746Z,8.77
2023-05-19T19:32:18.660Z,15.32
2023-05-19T19:35:20.930Z,23.63
2023-05-19T19:38:22.803Z,27.88
2023-05-19T19:41:26.201Z,23.60
2023-05-19T19:44:27.994Z,20.45
2023-05-19T19:47:29.905Z,17.50
2023-05-19T19:50:32.933Z,14.63
2023-05-19T19:53:34.903Z,14.38
2023-05-19T19:56:36.825Z,15.77
2023-05-19T19:59:38.694Z,14.85
2023-05-19T20:02:55.266Z,16.15
2023-05-19T20:06:03.127Z,14.18
2023-05-19T20:09:05.310Z,12.70
2023-05-19T20:12:07.425Z,12.15
2023-05-19T20:15:09.812Z,14.23
2023-05-19T20:18:12.157Z,15.20
2023-05-19T20:21:14.056Z,14.02
2023-05-19T20:24:15.958Z,11.10
2023-05-19T20:27:17.885Z,7.57
2023-05-19T20:30:19.911Z,5.95
2023-05-19T20:33:21.789Z,3.55
2023-05-19T20:36:23.603Z,3.65
2023-05-19T20:39:25.587Z,3.80
2023-05-19T20:42:27.429Z,3.28
2023-05-19T20:45:29.349Z,3.22
2023-05-19T20:48:31.597Z,2.67
2023-05-19T20:51:33.528Z,3.22
2023-05-19T20:54:35.588Z,2.63
2023-05-19T20:57:37.529Z,2.55
2023-05-19T21:00:39.448Z,2.60
2023-05-19T21:03:41.369Z,2.63
2023-05-19T21:06:43.338Z,3.03
2023-05-19T21:09:46.688Z,2.92
2023-05-19T21:12:48.757Z,2.72
2023-05-19T21:15:50.774Z,3.03
2023-05-19T21:18:52.771Z,3.00
2023-05-19T21:21:54.584Z,2.67
2023-05-19T21:24:57.050Z,2.80
2023-05-19T21:27:58.996Z,2.63
2023-05-19T21:31:00.966Z,2.28
2023-05-19T21:34:04.234Z,2.60
2023-05-19T21:37:06.057Z,2.47
2023-05-19T21:40:08.516Z,2.70
2023-05-19T21:43:11.163Z,2.28
2023-05-19T21:46:13.175Z,2.50
2023-05-19T21:49:15.131Z,2.92
2023-05-19T21:52:16.929Z,2.47
2023-05-19T21:55:18.840Z,2.30
2023-05-19T21:58:20.743Z,2.78
2023-05-19T22:01:22.724Z,2.70
2023-05-19T22:04:24.685Z,2.72
2023-05-19T22:07:27.098Z,2.67
2023-05-19T22:10:29.061Z,2.30
2023-05-19T22:13:31.985Z,2.35
2023-05-19T22:16:35.207Z,3.10
2023-05-19T22:19:37.489Z,2.50
2023-05-19T22:22:39.377Z,2.63
2023-05-19T22:25:41.550Z,2.35
2023-05-19T22:28:43.472Z,2.40
2023-05-19T22:31:45.397Z,2.00
2023-05-19T22:34:47.281Z,2.45
2023-05-19T22:37:49.237Z,2.33
2023-05-19T22:40:51.217Z,2.05
2023-05-19T22:43:53.022Z,2.05
2023-05-19T22:46:54.942Z,2.47
2023-05-19T22:49:57.258Z,2.40
2023-05-19T22:52:59.270Z,2.50
2023-05-19T22:56:01.170Z,2.60
2023-05-19T22:59:03.016Z,2.97
2023-05-19T23:02:05.810Z,3.03
2023-05-19T23:05:08.352Z,3.17
2023-05-19T23:08:10.170Z,2.70
2023-05-19T23:11:12.111Z,2.90
2023-05-19T23:14:13.985Z,3.03
2023-05-19T23:17:15.765Z,2.63
2023-05-19T23:20:17.685Z,3.27
2023-05-19T23:23:19.564Z,3.03
2023-05-19T23:26:21.719Z,2.92
2023-05-19T23:29:23.622Z,2.83
2023-05-19T23:32:25.577Z,2.67
2023-05-19T23:35:27.505Z,2.60
2023-05-19T23:38:29.381Z,2.92
2023-05-19T23:41:31.534Z,2.80
2023-05-19T23:44:33.339Z,2.47
2023-05-19T23:47:35.201Z,2.90
2023-05-19T23:50:37.026Z,3.00
2023-05-19T23:53:39.187Z,2.83
2023-05-19T23:56:41.088Z,3.10
2023-05-19T23:59:43.166Z,3.55
